createdAt,value
2023-01-15T00:02:14.206Z,96207.78
2023-01-15T00:04:58.944Z,96200.16
2023-01-15T00:07:43.952Z,96209.63
2023-01-15T00:10:28.894Z,96199.66
2023-01-15T00:13:13.787Z,96202.25
2023-01-15T00:15:58.714Z,96196.06
2023-01-15T00:18:43.611Z,96188.53
2023-01-15T00:21:28.430Z,96181.44
2023-01-15T00:24:13.318Z,96189.13
2023-01-15T00:26:58.496Z,96191.69
2023-01-15T00:29:43.327Z,96182.19
2023-01-15T00:32:28.190Z,96169.09
2023-01-15T00:35:13.027Z,96162.78
2023-01-15T00:37:57.953Z,96173.69
2023-01-15T00:40:42.821Z,96152.19
2023-01-15T00:43:27.864Z,96150.09
2023-01-15T00:46:12.829Z,96155.88
2023-01-15T00:48:57.689Z,96153.41
2023-01-15T00:51:42.525Z,96145.16
2023-01-15T00:54:27.376Z,96141.59
2023-01-15T00:57:12.312Z,96140.66
2023-01-15T00:59:57.194Z,96148.09
2023-01-15T01:02:42.027Z,96125.56
2023-01-15T01:05:26.817Z,96133.88
2023-01-15T01:08:11.685Z,96131.56
2023-01-15T01:10:56.586Z,96123.22
2023-01-15T01:13:41.526Z,96110.56
2023-01-15T01:16:26.623Z,96120.47
2023-01-15T01:19:11.306Z,96109.63
2023-01-15T01:21:56.299Z,96114.13
2023-01-15T01:24:41.283Z,96107.94
2023-01-15T01:27:26.250Z,96100.91
2023-01-15T01:30:10.896Z,96105.00
2023-01-15T01:32:55.848Z,96099.59
2023-01-15T01:35:40.664Z,96106.09
2023-01-15T01:38:25.467Z,96106.97
2023-01-15T01:41:10.835Z,96101.38
2023-01-15T01:43:55.639Z,96090.16
2023-01-15T01:46:40.644Z,96095.47
2023-01-15T01:49:25.540Z,96079.16
2023-01-15T01:52:10.584Z,96077.09
2023-01-15T01:54:55.591Z,96073.81
2023-01-15T01:57:40.397Z,96088.72
2023-01-15T02:00:25.250Z,96074.47
2023-01-15T02:03:10.117Z,96080.56
2023-01-15T02:05:55.129Z,96079.53
2023-01-15T02:08:39.937Z,96075.47
2023-01-15T02:11:24.904Z,96075.28
2023-01-15T02:14:09.740Z,96077.09
2023-01-15T02:16:54.720Z,96080.78
2023-01-15T02:19:39.288Z,96071.00
2023-01-15T02:22:24.293Z,96070.59
2023-01-15T02:25:09.110Z,96075.06
2023-01-15T02:27:54.053Z,96081.41
2023-01-15T02:30:38.919Z,96078.34
2023-01-15T02:33:23.739Z,96083.03
2023-01-15T02:36:08.681Z,96073.84
2023-01-15T02:38:53.571Z,96088.13
2023-01-15T02:41:38.587Z,96066.06
2023-01-15T02:44:23.423Z,96066.66
2023-01-15T02:47:08.392Z,96063.44
2023-01-15T02:49:53.245Z,96057.31
2023-01-15T02:52:38.171Z,96062.19
2023-01-15T02:55:23.019Z,96052.31
2023-01-15T02:58:07.834Z,96046.47
2023-01-15T03:00:52.873Z,96051.25
2023-01-15T03:03:37.697Z,96045.66
2023-01-15T03:06:22.504Z,96052.31
2023-01-15T03:09:07.390Z,96054.53
2023-01-15T03:11:52.498Z,96047.03
2023-01-15T03:14:37.419Z,96045.41
2023-01-15T03:17:22.237Z,96034.84
2023-01-15T03:20:07.256Z,96028.91
2023-01-15T03:22:52.132Z,96040.72
2023-01-15T03:25:37.160Z,96035.09
2023-01-15T03:28:22.034Z,96024.22
2023-01-15T03:31:06.961Z,96037.31
2023-01-15T03:33:51.747Z,96036.03
2023-01-15T03:36:36.589Z,96039.38
2023-01-15T03:39:21.399Z,96032.34
2023-01-15T03:42:06.289Z,96013.94
2023-01-15T03:44:51.237Z,96012.94
2023-01-15T03:47:36.119Z,96023.06
2023-01-15T03:50:21.050Z,96010.75
2023-01-15T03:53:05.967Z,96009.78
2023-01-15T03:55:51.029Z,96012.84
2023-01-15T03:58:35.876Z,96013.69
2023-01-15T04:01:20.984Z,96011.22
2023-01-15T04:04:06.321Z,96008.38
2023-01-15T04:06:51.231Z,96007.56
2023-01-15T04:09:36.085Z,95999.19
2023-01-15T04:12:20.903Z,95993.84
2023-01-15T04:15:05.795Z,95980.22
2023-01-15T04:17:50.543Z,95971.78
2023-01-15T04:20:35.424Z,95974.28
2023-01-15T04:23:20.268Z,95974.81
2023-01-15T04:26:05.321Z,95967.03
2023-01-15T04:28:50.277Z,95971.34
2023-01-15T04:31:35.185Z,95970.19
2023-01-15T04:34:20.101Z,95985.06
2023-01-15T04:37:04.955Z,95976.75
2023-01-15T04:39:49.958Z,95962.03
2023-01-15T04:42:34.809Z,95943.44
2023-01-15T04:45:19.655Z,95956.31
2023-01-15T04:48:04.677Z,95951.84
2023-01-15T04:50:49.734Z,95925.09
2023-01-15T04:53:34.616Z,95939.03
2023-01-15T04:56:19.475Z,95932.06
2023-01-15T04:59:04.479Z,95921.41
2023-01-15T05:02:02.592Z,95915.13
2023-01-15T05:04:49.207Z,95923.13
2023-01-15T05:07:33.987Z,95903.00
2023-01-15T05:10:18.943Z,95918.97
2023-01-15T05:13:03.696Z,95919.09
2023-01-15T05:15:48.577Z,95913.63
2023-01-15T05:18:33.354Z,95883.78
2023-01-15T05:21:18.359Z,95887.06
2023-01-15T05:24:03.407Z,95887.34
2023-01-15T05:26:48.337Z,95886.25
2023-01-15T05:29:33.310Z,95880.69
2023-01-15T05:32:18.389Z,95878.81
2023-01-15T05:35:03.226Z,95883.25
2023-01-15T05:37:48.065Z,95868.13
2023-01-15T05:40:33.142Z,95867.50
2023-01-15T05:43:18.034Z,95862.13
2023-01-15T05:46:02.868Z,95854.34
2023-01-15T05:48:47.629Z,95858.03
2023-01-15T05:51:32.557Z,95863.63
2023-01-15T05:54:17.541Z,95858.78
2023-01-15T05:57:02.417Z,95859.28
2023-01-15T05:59:47.392Z,95852.09
2023-01-15T06:02:32.241Z,95861.19
2023-01-15T06:05:17.100Z,95854.22
2023-01-15T06:08:03.077Z,95840.75
2023-01-15T06:10:47.956Z,95833.19
2023-01-15T06:13:33.069Z,95825.06
2023-01-15T06:16:18.217Z,95833.47
2023-01-15T06:19:03.183Z,95834.13
2023-01-15T06:21:48.080Z,95838.75
2023-01-15T06:24:33.004Z,95854.78
2023-01-15T06:27:17.817Z,95852.78
2023-01-15T06:30:02.706Z,95853.38
2023-01-15T06:32:47.595Z,95847.84
2023-01-15T06:35:32.519Z,95840.13
2023-01-15T06:38:17.472Z,95842.47
2023-01-15T06:41:02.326Z,95829.66
2023-01-15T06:43:47.336Z,95833.59
2023-01-15T06:46:32.154Z,95829.97
2023-01-15T06:49:17.100Z,95822.78
2023-01-15T06:52:02.035Z,95824.97
2023-01-15T06:54:46.961Z,95823.41
2023-01-15T06:57:31.844Z,95813.19
2023-01-15T07:00:16.705Z,95803.91
2023-01-15T07:03:01.763Z,95808.03
2023-01-15T07:05:46.696Z,95803.56
2023-01-15T07:08:31.717Z,95803.22
2023-01-15T07:11:16.536Z,95792.47
2023-01-15T07:14:01.399Z,95801.25
2023-01-15T07:16:46.306Z,95785.69
2023-01-15T07:19:31.306Z,95786.13
2023-01-15T07:22:16.210Z,95786.25
2023-01-15T07:25:01.134Z,95788.06
2023-01-15T07:27:46.101Z,95790.63
2023-01-15T07:30:30.888Z,95789.50
2023-01-15T07:33:15.917Z,95777.06
2023-01-15T07:36:00.689Z,95776.53
2023-01-15T07:38:45.576Z,95780.38
2023-01-15T07:41:30.412Z,95770.75
2023-01-15T07:44:15.305Z,95771.78
2023-01-15T07:47:00.184Z,95768.50
2023-01-15T07:49:45.098Z,95788.97
2023-01-15T07:52:30.134Z,95781.03
2023-01-15T07:55:15.013Z,95761.06
2023-01-15T07:57:59.858Z,95774.75
2023-01-15T08:00:44.750Z,95762.72
2023-01-15T08:03:29.592Z,95765.56
2023-01-15T08:06:14.546Z,95752.19
2023-01-15T08:08:59.631Z,95768.00
2023-01-15T08:11:44.509Z,95770.66
2023-01-15T08:14:29.495Z,95783.91
2023-01-15T08:17:14.434Z,95796.16
2023-01-15T08:19:59.338Z,95812.84
2023-01-15T08:22:44.233Z,95802.03
2023-01-15T08:25:29.025Z,95804.72
2023-01-15T08:28:14.066Z,95810.38
2023-01-15T08:30:58.887Z,95823.84
2023-01-15T08:33:43.710Z,95823.84
2023-01-15T08:36:28.725Z,95837.31
2023-01-15T08:39:13.542Z,95844.63
2023-01-15T08:41:58.480Z,95863.22
2023-01-15T08:44:43.356Z,95869.34
2023-01-15T08:47:28.380Z,95886.25
2023-01-15T08:50:13.157Z,95887.03
2023-01-15T08:52:58.168Z,95878.09
2023-01-15T08:55:42.939Z,95903.06
2023-01-15T08:58:27.889Z,95913.84
2023-01-15T09:01:12.849Z,95916.34
2023-01-15T09:03:58.239Z,95930.63
2023-01-15T09:06:43.170Z,95950.13
2023-01-15T09:09:27.959Z,95956.22
2023-01-15T09:12:12.933Z,95966.56
2023-01-15T09:15:02.990Z,95980.00
2023-01-15T09:17:48.516Z,95992.13
2023-01-15T09:20:34.170Z,96011.13
2023-01-15T09:23:19.173Z,96023.78
2023-01-15T09:26:04.156Z,96039.31
2023-01-15T09:28:48.960Z,96040.31
2023-01-15T09:31:33.939Z,96054.25
2023-01-15T09:34:19.379Z,96061.00
2023-01-15T09:37:04.201Z,96077.16
2023-01-15T09:39:49.258Z,96076.28
2023-01-15T09:42:34.002Z,96086.25
2023-01-15T09:45:19.028Z,96083.19
2023-01-15T09:48:03.802Z,96079.72
2023-01-15T09:50:48.690Z,96096.38
2023-01-15T09:53:33.532Z,96106.00
2023-01-15T09:56:18.388Z,96105.94
2023-01-15T09:59:03.307Z,96115.75
2023-01-15T10:01:48.246Z,96119.53
2023-01-15T10:04:33.269Z,96126.31
2023-01-15T10:07:18.302Z,96133.53
2023-01-15T10:10:03.679Z,96151.00
2023-01-15T10:12:48.636Z,96146.44
2023-01-15T10:15:33.660Z,96161.81
2023-01-15T10:18:18.963Z,96160.69
2023-01-15T10:21:04.072Z,96168.13
2023-01-15T10:23:49.034Z,96176.41
2023-01-15T10:26:33.827Z,96164.22
2023-01-15T10:29:18.960Z,96183.16
2023-01-15T10:32:03.781Z,96188.28
2023-01-15T10:34:48.810Z,96192.75
2023-01-15T10:37:33.704Z,96202.22
2023-01-15T10:40:18.631Z,96204.41
2023-01-15T10:43:03.620Z,96208.19
2023-01-15T10:45:48.600Z,96217.69
2023-01-15T10:48:33.583Z,96230.34
2023-01-15T10:51:18.470Z,96225.84
2023-01-15T10:54:03.508Z,96233.03
2023-01-15T10:56:48.451Z,96248.25
2023-01-15T10:59:33.392Z,96243.50
2023-01-15T11:02:18.214Z,96245.81
2023-01-15T11:05:03.506Z,96259.53
2023-01-15T11:08:10.427Z,96263.53
2023-01-15T11:10:53.377Z,96262.31
2023-01-15T11:13:38.247Z,96258.72
2023-01-15T11:16:23.134Z,96271.09
2023-01-15T11:19:07.798Z,96268.50
2023-01-15T11:21:52.865Z,96282.50
2023-01-15T11:24:37.627Z,96282.91
2023-01-15T11:27:22.477Z,96293.94
2023-01-15T11:30:07.302Z,96294.69
2023-01-15T11:32:52.195Z,96303.59
2023-01-15T11:35:36.971Z,96300.63
2023-01-15T11:38:21.876Z,96326.41
2023-01-15T11:41:06.639Z,96329.84
2023-01-15T11:43:51.465Z,96334.13
2023-01-15T11:46:36.458Z,96348.84
2023-01-15T11:49:21.171Z,96350.53
2023-01-15T11:52:06.153Z,96355.44
2023-01-15T11:54:50.932Z,96363.03
2023-01-15T11:57:35.798Z,96371.94
2023-01-15T12:00:20.644Z,96382.22
2023-01-15T12:03:05.377Z,96375.59
2023-01-15T12:05:50.340Z,96372.47
2023-01-15T12:08:35.305Z,96376.72
2023-01-15T12:11:26.721Z,96373.00
2023-01-15T12:14:12.147Z,96369.41
2023-01-15T12:16:56.802Z,96379.47
2023-01-15T12:19:41.736Z,96380.28
2023-01-15T12:22:26.665Z,96382.38
2023-01-15T12:25:11.601Z,96393.16
2023-01-15T12:27:56.394Z,96388.88
2023-01-15T12:30:41.094Z,96391.28
2023-01-15T12:33:26.083Z,96406.13
2023-01-15T12:36:11.160Z,96401.06
2023-01-15T12:38:56.029Z,96410.34
2023-01-15T12:41:40.843Z,96408.06
2023-01-15T12:44:25.904Z,96416.09
2023-01-15T12:47:10.773Z,96407.44
2023-01-15T12:49:55.621Z,96420.50
2023-01-15T12:52:40.314Z,96415.50
2023-01-15T12:55:25.209Z,96413.50
2023-01-15T12:58:10.064Z,96397.50
2023-01-15T13:00:54.865Z,96391.22
2023-01-15T13:03:40.375Z,96397.84
2023-01-15T13:06:25.292Z,96412.78
2023-01-15T13:09:10.259Z,96409.53
2023-01-15T13:11:54.993Z,96415.03
2023-01-15T13:14:39.894Z,96413.28
2023-01-15T13:17:24.722Z,96398.78
2023-01-15T13:20:09.694Z,96398.69
2023-01-15T13:22:54.565Z,96399.06
2023-01-15T13:25:39.401Z,96404.75
2023-01-15T13:28:24.370Z,96395.25
2023-01-15T13:31:09.195Z,96386.50
2023-01-15T13:33:54.019Z,96388.41
2023-01-15T13:36:38.903Z,96393.97
2023-01-15T13:39:23.879Z,96401.53
2023-01-15T13:42:08.709Z,96400.56
2023-01-15T13:44:53.702Z,96398.38
2023-01-15T13:47:38.539Z,96394.72
2023-01-15T13:50:23.624Z,96394.47
2023-01-15T13:53:08.346Z,96392.81
2023-01-15T13:55:53.255Z,96389.09
2023-01-15T13:58:38.290Z,96396.44
2023-01-15T14:01:23.257Z,96399.75
2023-01-15T14:04:08.687Z,96392.06
2023-01-15T14:06:53.523Z,96404.16
2023-01-15T14:09:38.462Z,96394.78
2023-01-15T14:12:23.229Z,96396.03
2023-01-15T14:15:08.116Z,96393.50
2023-01-15T14:17:53.029Z,96396.13
2023-01-15T14:20:37.897Z,96398.59
2023-01-15T14:23:22.902Z,96396.22
2023-01-15T14:26:07.754Z,96396.78
2023-01-15T14:28:52.601Z,96387.69
2023-01-15T14:31:37.445Z,96393.41
2023-01-15T14:34:22.514Z,96384.66
2023-01-15T14:37:07.483Z,96396.09
2023-01-15T14:39:52.279Z,96397.19
2023-01-15T14:42:37.237Z,96406.28
2023-01-15T14:45:22.052Z,96411.38
2023-01-15T14:48:07.046Z,96408.06
2023-01-15T14:50:51.866Z,96418.28
2023-01-15T14:53:36.771Z,96401.88
2023-01-15T14:56:21.626Z,96404.81
2023-01-15T14:59:06.589Z,96397.75
2023-01-15T15:01:51.662Z,96396.72
2023-01-15T15:04:36.991Z,96398.88
2023-01-15T15:07:21.936Z,96400.81
2023-01-15T15:10:06.650Z,96398.13
2023-01-15T15:12:51.529Z,96400.63
2023-01-15T15:15:36.290Z,96400.59
2023-01-15T15:18:21.125Z,96394.94
2023-01-15T15:21:06.018Z,96396.88
2023-01-15T15:23:50.859Z,96387.75
2023-01-15T15:26:35.886Z,96397.41
2023-01-15T15:29:20.796Z,96383.06
2023-01-15T15:32:05.698Z,96389.91
2023-01-15T15:34:50.682Z,96394.38
2023-01-15T15:37:35.592Z,96396.69
2023-01-15T15:40:20.373Z,96396.75
2023-01-15T15:43:05.219Z,96393.56
2023-01-15T15:45:50.063Z,96391.53
2023-01-15T15:48:35.351Z,96381.13
2023-01-15T15:51:20.078Z,96395.59
2023-01-15T15:54:05.052Z,96391.66
2023-01-15T15:56:50.031Z,96383.31
2023-01-15T15:59:35.048Z,96387.91
2023-01-15T16:02:20.178Z,96385.56
2023-01-15T16:05:05.281Z,96386.38
2023-01-15T16:07:50.213Z,96392.13
2023-01-15T16:10:35.047Z,96386.97
2023-01-15T16:13:20.002Z,96383.66
2023-01-15T16:16:05.000Z,96381.56
2023-01-15T16:18:49.804Z,96388.88
2023-01-15T16:21:34.761Z,96383.38
2023-01-15T16:24:19.633Z,96385.38
2023-01-15T16:27:04.578Z,96376.28
2023-01-15T16:29:49.325Z,96375.41
2023-01-15T16:32:34.263Z,96373.88
2023-01-15T16:35:19.123Z,96377.56
2023-01-15T16:38:03.948Z,96372.94
2023-01-15T16:40:48.705Z,96378.34
2023-01-15T16:43:33.511Z,96375.41
2023-01-15T16:46:18.266Z,96366.84
2023-01-15T16:49:03.243Z,96366.44
2023-01-15T16:51:48.046Z,96359.69
2023-01-15T16:54:32.818Z,96363.91
2023-01-15T16:57:17.776Z,96376.75
2023-01-15T17:00:02.618Z,96369.28
2023-01-15T17:02:47.476Z,96375.47
2023-01-15T17:05:32.444Z,96367.19
2023-01-15T17:08:17.342Z,96363.09
2023-01-15T17:11:02.198Z,96357.44
2023-01-15T17:13:47.021Z,96354.81
2023-01-15T17:16:32.068Z,96355.28
2023-01-15T17:19:17.646Z,96346.81
2023-01-15T17:22:02.701Z,96342.59
2023-01-15T17:24:47.483Z,96343.09
2023-01-15T17:27:32.369Z,96343.06
2023-01-15T17:30:17.207Z,96332.50
2023-01-15T17:33:02.204Z,96333.78
2023-01-15T17:35:47.051Z,96328.75
2023-01-15T17:38:31.937Z,96336.44
2023-01-15T17:41:16.969Z,96332.50
2023-01-15T17:44:01.776Z,96328.50
2023-01-15T17:46:46.688Z,96329.13
2023-01-15T17:49:31.373Z,96329.09
2023-01-15T17:52:16.309Z,96322.59
2023-01-15T17:55:01.259Z,96319.69
2023-01-15T17:57:46.063Z,96308.47
2023-01-15T18:00:30.998Z,96300.78
2023-01-15T18:03:15.864Z,96299.22
2023-01-15T18:06:00.787Z,96302.53
2023-01-15T18:08:45.779Z,96303.78
2023-01-15T18:11:30.741Z,96307.38
2023-01-15T18:14:15.546Z,96300.91
2023-01-15T18:17:00.539Z,96292.50
2023-01-15T18:19:46.088Z,96302.34
2023-01-15T18:22:31.019Z,96296.44
2023-01-15T18:25:16.031Z,96288.38
2023-01-15T18:28:00.988Z,96283.47
2023-01-15T18:30:45.907Z,96283.38
2023-01-15T18:33:30.789Z,96273.84
2023-01-15T18:36:15.851Z,96270.22
2023-01-15T18:39:00.695Z,96258.44
2023-01-15T18:41:45.788Z,96261.66
2023-01-15T18:44:30.675Z,96268.19
2023-01-15T18:47:15.573Z,96260.34
2023-01-15T18:50:00.597Z,96260.41
2023-01-15T18:52:45.537Z,96262.72
2023-01-15T18:55:30.384Z,96264.59
2023-01-15T18:58:15.176Z,96253.19
2023-01-15T19:01:00.198Z,96247.00
2023-01-15T19:03:45.493Z,96252.16
2023-01-15T19:06:30.436Z,96241.25
2023-01-15T19:09:15.407Z,96243.47
2023-01-15T19:12:00.290Z,96229.00
2023-01-15T19:14:45.197Z,96232.00
2023-01-15T19:17:30.080Z,96221.00
2023-01-15T19:20:14.993Z,96229.88
2023-01-15T19:22:59.850Z,96224.06
2023-01-15T19:25:45.251Z,96222.19
2023-01-15T19:28:30.153Z,96225.81
2023-01-15T19:31:15.181Z,96213.59
2023-01-15T19:34:31.157Z,96219.44
2023-01-15T19:37:04.962Z,96209.59
2023-01-15T19:39:49.908Z,96205.91
2023-01-15T19:42:34.761Z,96202.41
2023-01-15T19:45:19.617Z,96197.31
2023-01-15T19:48:04.533Z,96194.69
2023-01-15T19:50:49.345Z,96203.84
2023-01-15T19:53:34.367Z,96180.75
2023-01-15T19:56:19.179Z,96182.16
2023-01-15T19:59:04.228Z,96170.31
2023-01-15T20:01:49.636Z,96175.31
2023-01-15T20:04:34.621Z,96172.13
2023-01-15T20:07:19.593Z,96172.09
2023-01-15T20:10:04.513Z,96167.41
2023-01-15T20:12:49.453Z,96155.09
2023-01-15T20:15:34.264Z,96148.19
2023-01-15T20:18:19.242Z,96150.66
2023-01-15T20:21:04.170Z,96143.34
2023-01-15T20:23:49.174Z,96141.25
2023-01-15T20:26:34.085Z,96136.72
2023-01-15T20:29:18.872Z,96133.03
2023-01-15T20:32:03.872Z,96125.53
2023-01-15T20:34:48.791Z,96120.00
2023-01-15T20:37:33.923Z,96117.75
2023-01-15T20:40:18.709Z,96101.25
2023-01-15T20:43:03.667Z,96106.09
2023-01-15T20:45:48.717Z,96101.06
2023-01-15T20:48:33.552Z,96095.88
2023-01-15T20:51:18.511Z,96091.41
2023-01-15T20:54:03.478Z,96092.66
2023-01-15T20:56:48.376Z,96090.00
2023-01-15T20:59:32.987Z,96082.75
2023-01-15T21:02:17.933Z,96074.34
2023-01-15T21:05:02.715Z,96069.84
2023-01-15T21:07:47.583Z,96062.47
2023-01-15T21:10:32.408Z,96059.97
2023-01-15T21:13:17.245Z,96059.78
2023-01-15T21:16:02.434Z,96049.50
2023-01-15T21:18:47.286Z,96037.72
2023-01-15T21:21:32.167Z,96029.16
2023-01-15T21:24:16.967Z,96030.91
2023-01-15T21:27:01.922Z,96026.63
2023-01-15T21:29:46.809Z,96030.63
2023-01-15T21:32:31.847Z,96017.00
2023-01-15T21:35:16.720Z,96011.63
2023-01-15T21:38:01.812Z,96007.06
2023-01-15T21:40:46.676Z,96003.31
2023-01-15T21:43:31.616Z,95989.00
2023-01-15T21:46:16.463Z,95988.59
2023-01-15T21:49:01.540Z,95978.13
2023-01-15T21:51:46.343Z,95975.13
2023-01-15T21:54:31.275Z,95977.28
2023-01-15T21:57:16.168Z,95965.41
2023-01-15T22:00:01.085Z,95961.53
2023-01-15T22:02:46.107Z,95963.25
2023-01-15T22:05:30.965Z,95962.72
2023-01-15T22:08:16.035Z,95944.63
2023-01-15T22:11:00.888Z,95946.47
2023-01-15T22:13:45.635Z,95937.84
2023-01-15T22:16:30.713Z,95935.41
2023-01-15T22:19:15.475Z,95927.84
2023-01-15T22:22:00.422Z,95923.47
2023-01-15T22:24:45.352Z,95935.41
2023-01-15T22:27:30.159Z,95918.13
2023-01-15T22:30:15.045Z,95921.38
2023-01-15T22:32:59.857Z,95902.03
2023-01-15T22:35:44.777Z,95906.03
2023-01-15T22:38:29.644Z,95897.63
2023-01-15T22:41:14.549Z,95901.38
2023-01-15T22:43:59.444Z,95880.34
2023-01-15T22:46:44.332Z,95881.06
2023-01-15T22:49:29.235Z,95878.91
2023-01-15T22:52:14.155Z,95881.06
2023-01-15T22:54:59.115Z,95859.50
2023-01-15T22:57:44.053Z,95862.31
2023-01-15T23:00:28.986Z,95860.63
2023-01-15T23:03:13.829Z,95849.59
2023-01-15T23:05:58.881Z,95857.50
2023-01-15T23:08:43.777Z,95852.84
2023-01-15T23:11:28.753Z,95827.31
2023-01-15T23:14:13.549Z,95834.00
2023-01-15T23:16:58.530Z,95826.34
2023-01-15T23:19:43.468Z,95822.63
2023-01-15T23:22:28.275Z,95815.97
2023-01-15T23:25:13.234Z,95812.09
2023-01-15T23:27:58.125Z,95799.34
2023-01-15T23:30:43.022Z,95793.38
2023-01-15T23:33:27.719Z,95793.72
2023-01-15T23:36:12.696Z,95792.25
2023-01-15T23:38:57.487Z,95782.44
2023-01-15T23:41:42.307Z,95767.16
2023-01-15T23:44:27.173Z,95764.72
2023-01-15T23:47:12.200Z,95761.31
2023-01-15T23:49:57.083Z,95748.66
2023-01-15T23:52:42.085Z,95736.22
2023-01-15T23:55:27.054Z,95736.66
2023-01-15T23:58:11.952Z,95718.66
